Time;durP1;ratioP1;P1;durP2;ratioP2;P2;SDS_P1;SDS_P2;PMS_P1;PMS_P2;Temp;Humidity;BMP_temperature;BMP_pressure;BME280_temperature;BME280_humidity;BME280_pressure;Samples;Min_cycle;Max_cycle;Signal;HPM_P1;HPM_P2
2021/10/16 00:00:48;;;;;;;2.60;2.40;;;;;18.50;101057.00;;;;2096229;28;21405;-55
2021/10/16 00:01:49;;;;;;;2.80;2.47;;;;;18.50;101064.00;;;;2091955;28;20436;-53
2021/10/16 00:02:49;;;;;;;3.10;2.80;;;;;18.50;101059.00;;;;2087423;28;20729;-55
2021/10/16 00:03:49;;;;;;;2.77;2.57;;;;;18.50;101061.00;;;;2089896;28;20578;-53
2021/10/16 00:04:51;;;;;;;3.10;2.67;;;;;18.50;101065.00;;;;2096484;28;20587;-53
2021/10/16 00:05:53;;;;;;;2.80;2.60;;;;;18.40;101070.00;;;;2095592;28;20231;-55
2021/10/16 00:06:53;;;;;;;3.10;2.80;;;;;18.40;101063.00;;;;2096148;28;20259;-54
2021/10/16 00:07:53;;;;;;;2.97;2.20;;;;;18.40;101064.00;;;;2096489;28;20216;-54
2021/10/16 00:08:53;;;;;;;2.60;2.40;;;;;18.40;101059.00;;;;2095532;28;20213;-54
2021/10/16 00:09:54;;;;;;;3.07;2.87;;;;;18.50;101057.00;;;;2096440;28;20247;-55
2021/10/16 00:10:55;;;;;;;2.50;2.30;;;;;18.40;101064.00;;;;2096401;28;20212;-55
2021/10/16 00:11:55;;;;;;;2.90;2.70;;;;;18.40;101060.00;;;;2093554;28;20242;-54
2021/10/16 00:12:55;;;;;;;2.87;2.60;;;;;18.40;101052.00;;;;2096271;28;20216;-54
2021/10/16 00:13:56;;;;;;;3.20;2.90;;;;;18.50;101063.00;;;;2096396;28;20212;-54
2021/10/16 00:14:57;;;;;;;2.87;2.67;;;;;18.50;101066.00;;;;2095414;28;20273;-54
2021/10/16 00:15:57;;;;;;;3.73;2.77;;;;;18.50;101068.00;;;;2090857;28;20221;-55
2021/10/16 00:16:58;;;;;;;2.50;2.30;;;;;18.50;101070.00;;;;2087810;28;20455;-56
2021/10/16 00:17:58;;;;;;;3.57;3.00;;;;;18.40;101069.00;;;;2095241;28;20216;-54
2021/10/16 00:18:59;;;;;;;3.57;3.23;;;;;18.40;101072.00;;;;2087190;28;20224;-54
2021/10/16 00:19:59;;;;;;;3.10;2.53;;;;;18.40;101070.00;;;;2087756;28;20227;-54
2021/10/16 00:21:00;;;;;;;2.57;2.37;;;;;18.40;101069.00;;;;2087852;28;20216;-54
2021/10/16 00:22:00;;;;;;;3.23;2.93;;;;;18.40;101073.00;;;;2090198;28;20286;-54
2021/10/16 00:23:01;;;;;;;4.40;2.70;;;;;18.50;101077.00;;;;2089337;28;20239;-56
2021/10/16 00:24:02;;;;;;;3.67;3.03;;;;;18.40;101070.00;;;;2088060;28;20209;-55
2021/10/16 00:25:03;;;;;;;3.03;2.80;;;;;18.40;101075.00;;;;2090155;28;20496;-58
2021/10/16 00:26:03;;;;;;;2.80;2.60;;;;;18.40;101074.00;;;;2096122;28;20216;-55
2021/10/16 00:27:04;;;;;;;2.80;2.60;;;;;18.50;101072.00;;;;2096299;28;20216;-55
2021/10/16 00:28:05;;;;;;;2.63;2.42;;;;;18.40;101069.00;;;;2094497;28;20216;-54
2021/10/16 00:29:05;;;;;;;3.20;2.90;;;;;18.40;101077.00;;;;2095077;28;20595;-54
2021/10/16 00:30:06;;;;;;;3.00;2.70;;;;;18.40;101069.00;;;;2096058;28;20216;-54
2021/10/16 00:31:06;;;;;;;3.00;2.70;;;;;18.40;101070.00;;;;2095930;28;20232;-55
2021/10/16 00:32:06;;;;;;;3.30;3.00;;;;;18.40;101070.00;;;;2094734;28;20215;-54
2021/10/16 00:33:07;;;;;;;3.30;3.00;;;;;18.40;101069.00;;;;2096138;28;20227;-54
2021/10/16 00:34:07;;;;;;;4.30;2.93;;;;;18.40;101069.00;;;;2096054;28;20258;-56
2021/10/16 00:35:08;;;;;;;2.60;2.40;;;;;18.40;101062.00;;;;2096533;28;20226;-54
2021/10/16 00:36:08;;;;;;;2.83;2.53;;;;;18.40;101063.00;;;;2096634;28;20216;-55
2021/10/16 00:37:09;;;;;;;3.17;2.87;;;;;18.40;101063.00;;;;2096552;28;20215;-53
2021/10/16 00:38:09;;;;;;;2.87;2.67;;;;;18.40;101066.00;;;;2096692;28;20216;-54
2021/10/16 00:39:09;;;;;;;4.10;3.70;;;;;18.40;101066.00;;;;2089618;28;20260;-54
2021/10/16 00:40:10;;;;;;;2.60;2.40;;;;;18.40;101061.00;;;;2088459;28;20212;-54
2021/10/16 00:41:12;;;;;;;2.70;2.50;;;;;18.40;101062.00;;;;2088102;28;20686;-55
2021/10/16 00:42:13;;;;;;;3.22;2.92;;;;;18.40;101027.00;;;;2088106;28;20245;-56
2021/10/16 00:43:13;;;;;;;2.73;2.53;;;;;18.40;101059.00;;;;2087457;28;20607;-54
2021/10/16 00:44:17;;;;;;;3.63;3.13;;;;;18.40;101064.00;;;;2089183;28;20209;-55
2021/10/16 00:45:19;;;;;;;3.10;2.80;;;;;18.40;101059.00;;;;2096465;28;20696;-55
2021/10/16 00:46:19;;;;;;;3.92;2.65;;;;;18.50;101062.00;;;;2090472;28;20571;-54
2021/10/16 00:47:20;;;;;;;3.07;2.87;;;;;18.50;101057.00;;;;2087935;28;20194;-55
2021/10/16 00:48:20;;;;;;;3.00;2.70;;;;;18.50;101051.00;;;;2087511;28;20832;-54
2021/10/16 00:49:20;;;;;;;2.80;2.60;;;;;18.40;101058.00;;;;2095647;28;20204;-56
2021/10/16 00:50:22;;;;;;;3.10;2.80;;;;;18.40;101059.00;;;;2088268;28;20686;-55
2021/10/16 00:51:22;;;;;;;3.20;2.50;;;;;18.40;101058.00;;;;2087246;28;20284;-55
2021/10/16 00:52:23;;;;;;;3.97;3.10;;;;;18.40;101048.00;;;;2085995;28;20227;-54
2021/10/16 00:53:23;;;;;;;2.90;2.63;;;;;18.40;101058.00;;;;2087558;28;20216;-53
2021/10/16 00:54:24;;;;;;;3.10;2.80;;;;;18.40;101052.00;;;;2087690;28;20205;-54
2021/10/16 00:55:24;;;;;;;3.17;2.87;;;;;18.50;101057.00;;;;2095312;28;20295;-55
2021/10/16 00:56:25;;;;;;;3.20;2.90;;;;;18.40;101051.00;;;;2095723;28;20361;-56
2021/10/16 00:57:25;;;;;;;3.37;2.90;;;;;18.40;101054.00;;;;2095734;28;20685;-54
2021/10/16 00:58:25;;;;;;;3.00;2.80;;;;;18.40;101049.00;;;;2086852;28;20212;-53
2021/10/16 00:59:28;;;;;;;2.73;2.53;;;;;18.40;101048.00;;;;2087745;28;20218;-54
2021/10/16 01:00:29;;;;;;;2.80;2.60;;;;;18.40;101054.00;;;;2087737;28;20225;-54
2021/10/16 01:01:31;;;;;;;3.40;2.73;;;;;18.40;101057.00;;;;2088088;28;20224;-54
2021/10/16 01:02:32;;;;;;;4.05;2.95;;;;;18.40;101054.00;;;;2088031;28;20322;-53
2021/10/16 01:03:32;;;;;;;3.10;2.50;;;;;18.40;101060.00;;;;2089804;28;20239;-55
2021/10/16 01:04:33;;;;;;;3.10;2.80;;;;;18.40;101049.00;;;;2096498;28;20219;-55
2021/10/16 01:05:34;;;;;;;2.80;2.60;;;;;18.40;101046.00;;;;2096529;28;20794;-54
2021/10/16 01:06:35;;;;;;;2.97;2.78;;;;;18.40;101054.00;;;;2090923;28;20216;-55
2021/10/16 01:07:36;;;;;;;3.40;3.10;;;;;18.40;101049.00;;;;2085808;28;20246;-53
2021/10/16 01:08:37;;;;;;;2.80;2.50;;;;;18.40;101057.00;;;;2092103;28;20212;-54
2021/10/16 01:09:38;;;;;;;2.60;2.40;;;;;18.40;101056.00;;;;2093628;28;20450;-54
2021/10/16 01:10:39;;;;;;;3.37;3.07;;;;;18.40;101056.00;;;;2088682;28;20678;-56
2021/10/16 01:11:51;;;;;;;2.78;2.58;;;;;18.40;101053.00;;;;2082861;28;20722;-58
2021/10/16 01:12:52;;;;;;;3.08;2.85;;;;;18.40;101061.00;;;;2093686;28;20207;-54
2021/10/16 01:13:52;;;;;;;2.97;2.70;;;;;18.40;101050.00;;;;2095034;28;20208;-53
2021/10/16 01:14:56;;;;;;;3.40;2.70;;;;;18.40;101055.00;;;;2089631;28;20213;-54
2021/10/16 01:15:57;;;;;;;2.60;2.40;;;;;18.40;101059.00;;;;2087493;28;20785;-54
2021/10/16 01:16:58;;;;;;;3.03;2.72;;;;;18.40;101056.00;;;;2087691;28;20295;-55
2021/10/16 01:17:58;;;;;;;2.53;2.33;;;;;18.40;101055.00;;;;2087796;28;20605;-54
2021/10/16 01:18:59;;;;;;;3.17;2.53;;;;;18.40;101050.00;;;;2078902;28;21011;-54
2021/10/16 01:20:08;;;;;;;2.63;2.43;;;;;18.40;101040.00;;;;2072745;28;20465;-56
2021/10/16 01:21:08;;;;;;;2.97;2.72;;;;;18.40;101042.00;;;;2079971;28;20360;-54
2021/10/16 01:22:09;;;;;;;2.73;2.53;;;;;18.40;101044.00;;;;2087232;28;20697;-54
2021/10/16 01:23:09;;;;;;;3.53;2.97;;;;;18.40;101045.00;;;;2079057;28;20774;-54
2021/10/16 01:24:10;;;;;;;2.60;2.40;;;;;18.40;101056.00;;;;2088041;28;20227;-54
2021/10/16 01:25:18;;;;;;;2.70;2.50;;;;;18.40;101042.00;;;;2095602;28;20971;-55
2021/10/16 01:26:18;;;;;;;2.65;2.45;;;;;18.40;101046.00;;;;2096028;28;20212;-54
2021/10/16 01:27:19;;;;;;;3.20;2.73;;;;;18.40;101046.00;;;;2089369;28;20287;-55
2021/10/16 01:28:19;;;;;;;2.50;2.30;;;;;18.40;101047.00;;;;2079029;28;20209;-53
2021/10/16 01:29:23;;;;;;;3.57;2.90;;;;;18.40;101046.00;;;;2078571;28;20544;-54
2021/10/16 01:30:23;;;;;;;2.90;2.60;;;;;18.40;101045.00;;;;2087188;28;20209;-56
2021/10/16 01:31:24;;;;;;;2.60;2.40;;;;;18.40;101050.00;;;;2084856;28;20212;-54
2021/10/16 01:32:24;;;;;;;2.70;2.50;;;;;18.40;101048.00;;;;2089899;28;20374;-53
2021/10/16 01:33:26;;;;;;;2.77;2.57;;;;;18.40;101042.00;;;;2096188;28;20284;-53
2021/10/16 01:34:27;;;;;;;3.25;2.95;;;;;18.40;101053.00;;;;2096168;28;20208;-55
2021/10/16 01:35:27;;;;;;;2.40;2.20;;;;;18.40;101055.00;;;;2096095;28;20236;-54
2021/10/16 01:36:41;;;;;;;3.03;2.80;;;;;18.40;101052.00;;;;2096002;28;20229;-55
2021/10/16 01:37:46;;;;;;;3.00;2.30;;;;;18.40;101048.00;;;;2094852;28;20294;-59
2021/10/16 01:38:46;;;;;;;2.90;2.70;;;;;18.40;101049.00;;;;2095510;28;20648;-55
2021/10/16 01:39:47;;;;;;;3.70;2.70;;;;;18.40;101043.00;;;;2095420;28;20220;-54
2021/10/16 01:40:47;;;;;;;2.70;2.50;;;;;18.40;101053.00;;;;2095764;28;20299;-54
2021/10/16 01:41:47;;;;;;;3.13;2.83;;;;;18.40;101043.00;;;;2094437;28;20230;-53
2021/10/16 01:42:49;;;;;;;2.63;2.43;;;;;18.40;101041.00;;;;2095736;28;20282;-53
2021/10/16 01:43:49;;;;;;;2.97;2.70;;;;;18.40;101044.00;;;;2095412;28;20265;-53
2021/10/16 01:44:50;;;;;;;3.30;2.70;;;;;18.20;101042.00;;;;2095321;28;20789;-53
2021/10/16 01:45:52;;;;;;;2.50;2.30;;;;;18.40;101044.00;;;;2092391;28;20370;-54
2021/10/16 01:46:52;;;;;;;2.80;2.60;;;;;18.40;101042.00;;;;2087241;28;20322;-54
2021/10/16 01:47:53;;;;;;;2.87;2.67;;;;;18.40;101035.00;;;;2087070;28;20231;-54
2021/10/16 01:48:54;;;;;;;3.03;2.83;;;;;18.40;101040.00;;;;2087931;28;20227;-54
2021/10/16 01:49:55;;;;;;;2.80;2.33;;;;;18.40;101046.00;;;;2096036;28;20560;-54
2021/10/16 01:50:56;;;;;;;2.50;2.30;;;;;18.40;101043.00;;;;2095727;28;20731;-54
2021/10/16 01:51:57;;;;;;;2.60;2.23;;;;;18.40;101037.00;;;;2095865;28;20215;-54
2021/10/16 01:52:57;;;;;;;2.97;2.70;;;;;18.40;101045.00;;;;2096028;28;20458;-53
2021/10/16 01:53:58;;;;;;;3.27;2.83;;;;;18.40;101043.00;;;;2096023;28;20209;-55
2021/10/16 01:54:59;;;;;;;3.03;2.73;;;;;18.40;101043.00;;;;2095650;28;20208;-55
2021/10/16 01:55:59;;;;;;;2.80;2.60;;;;;18.40;101042.00;;;;2090135;28;20463;-53
2021/10/16 01:57:00;;;;;;;2.83;2.50;;;;;18.40;101045.00;;;;2087383;28;20209;-54
2021/10/16 01:58:13;;;;;;;2.53;2.33;;;;;18.40;101036.00;;;;2087687;28;20586;-56
2021/10/16 01:59:18;;;;;;;3.10;2.80;;;;;18.40;101034.00;;;;2082959;28;20262;-55
2021/10/16 02:00:19;;;;;;;2.55;2.35;;;;;18.40;101039.00;;;;2087788;28;20245;-55
2021/10/16 02:01:20;;;;;;;2.50;2.30;;;;;18.40;101042.00;;;;2095472;28;20289;-54
2021/10/16 02:02:20;;;;;;;2.60;2.40;;;;;18.40;101033.00;;;;2095556;28;20219;-54
2021/10/16 02:03:20;;;;;;;3.20;2.90;;;;;18.40;101045.00;;;;2088971;28;20451;-54
2021/10/16 02:04:22;;;;;;;2.40;2.20;;;;;18.40;101045.00;;;;2087422;28;20209;-54
2021/10/16 02:05:24;;;;;;;2.80;2.40;;;;;18.40;101050.00;;;;2085758;28;20205;-55
2021/10/16 02:06:24;;;;;;;2.75;2.50;;;;;18.40;101041.00;;;;2086500;28;20264;-54
2021/10/16 02:07:25;;;;;;;2.57;2.37;;;;;18.30;101044.00;;;;2086559;28;20242;-54
2021/10/16 02:08:25;;;;;;;2.90;2.50;;;;;18.40;101045.00;;;;2086855;28;20205;-55
2021/10/16 02:09:25;;;;;;;2.77;2.57;;;;;18.40;101045.00;;;;2086776;28;20205;-55
2021/10/16 02:10:26;;;;;;;2.80;2.60;;;;;18.40;101048.00;;;;2087471;28;20690;-55
2021/10/16 02:11:26;;;;;;;3.33;2.50;;;;;18.40;101045.00;;;;2085936;28;20410;-54
2021/10/16 02:12:27;;;;;;;2.50;2.30;;;;;18.40;101045.00;;;;2084287;28;20578;-54
2021/10/16 02:13:27;;;;;;;2.60;2.40;;;;;18.40;101049.00;;;;2096072;28;20291;-54
2021/10/16 02:14:27;;;;;;;7.00;2.50;;;;;18.10;101049.00;;;;2095996;28;20670;-54
2021/10/16 02:15:28;;;;;;;2.30;2.10;;;;;18.40;101047.00;;;;2090982;28;20201;-54
2021/10/16 02:16:28;;;;;;;2.33;2.13;;;;;18.40;101047.00;;;;2090675;28;20670;-54
2021/10/16 02:17:29;;;;;;;2.53;2.33;;;;;18.40;101051.00;;;;2086894;28;20539;-55
2021/10/16 02:18:30;;;;;;;2.63;2.43;;;;;18.40;101056.00;;;;2091242;28;20212;-54
2021/10/16 02:19:30;;;;;;;2.55;2.30;;;;;18.40;101049.00;;;;2087144;28;20263;-54
2021/10/16 02:20:31;;;;;;;2.80;2.40;;;;;18.40;101052.00;;;;2090148;28;20213;-54
2021/10/16 02:21:31;;;;;;;3.20;2.90;;;;;18.40;101050.00;;;;2095671;28;20212;-54
2021/10/16 02:22:31;;;;;;;2.53;2.33;;;;;18.40;101047.00;;;;2095763;28;20689;-54
2021/10/16 02:23:32;;;;;;;2.40;2.20;;;;;18.40;101047.00;;;;2095855;28;20215;-55
2021/10/16 02:24:32;;;;;;;2.63;2.30;;;;;18.30;101049.00;;;;2095781;28;20291;-54
2021/10/16 02:25:32;;;;;;;2.43;2.23;;;;;18.30;101041.00;;;;2095841;28;20215;-54
2021/10/16 02:26:33;;;;;;;2.53;2.20;;;;;18.30;101046.00;;;;2095634;28;20257;-54
2021/10/16 02:27:34;;;;;;;3.30;2.40;;;;;18.30;101049.00;;;;2095819;28;20214;-55
2021/10/16 02:28:34;;;;;;;2.43;2.23;;;;;18.30;101046.00;;;;2094851;28;20204;-54
2021/10/16 02:29:34;;;;;;;2.50;2.30;;;;;18.30;101044.00;;;;2094919;28;20454;-54
2021/10/16 02:30:35;;;;;;;2.37;2.17;;;;;18.30;101046.00;;;;2095899;28;20207;-55
2021/10/16 02:31:35;;;;;;;2.70;2.47;;;;;18.30;101047.00;;;;2092212;28;20205;-54
2021/10/16 02:32:36;;;;;;;2.50;2.30;;;;;18.40;101046.00;;;;2087512;28;20209;-56
2021/10/16 02:33:38;;;;;;;3.05;2.75;;;;;18.40;101053.00;;;;2089960;28;20208;-55
2021/10/16 02:34:39;;;;;;;2.38;2.17;;;;;18.40;101051.00;;;;2087058;28;20263;-52
2021/10/16 02:35:39;;;;;;;2.50;2.30;;;;;18.40;101052.00;;;;2093567;28;20216;-55
2021/10/16 02:36:39;;;;;;;2.50;2.30;;;;;18.40;101049.00;;;;2087591;28;20629;-54
2021/10/16 02:37:40;;;;;;;2.40;2.20;;;;;18.30;101053.00;;;;2085086;28;20209;-55
2021/10/16 02:38:43;;;;;;;2.47;2.13;;;;;18.30;101051.00;;;;2087202;28;20323;-53
2021/10/16 02:39:44;;;;;;;2.67;2.47;;;;;18.30;101052.00;;;;2086412;28;20251;-54
2021/10/16 02:40:44;;;;;;;2.40;2.20;;;;;18.30;101055.00;;;;2086900;28;20386;-55
2021/10/16 02:41:44;;;;;;;2.43;2.23;;;;;18.30;101051.00;;;;2083095;28;20259;-55
2021/10/16 02:42:45;;;;;;;2.57;2.37;;;;;18.30;101054.00;;;;2087531;28;20697;-54
2021/10/16 02:43:45;;;;;;;2.73;2.27;;;;;18.40;101058.00;;;;2087328;28;20319;-53
2021/10/16 02:44:46;;;;;;;2.20;2.00;;;;;18.40;101058.00;;;;2088540;28;20231;-55
2021/10/16 02:45:46;;;;;;;2.20;1.97;;;;;18.30;101055.00;;;;2092527;28;20262;-55
2021/10/16 02:46:47;;;;;;;2.70;2.47;;;;;18.30;101055.00;;;;2091741;28;20281;-53
2021/10/16 02:47:48;;;;;;;2.33;2.13;;;;;18.30;101062.00;;;;2092329;28;20219;-55
2021/10/16 02:48:48;;;;;;;2.03;1.92;;;;;18.40;101058.00;;;;2090212;28;20312;-53
2021/10/16 02:49:49;;;;;;;2.47;2.10;;;;;18.30;101057.00;;;;2087431;28;20205;-54
2021/10/16 02:50:50;;;;;;;2.30;2.10;;;;;18.30;101053.00;;;;2087506;28;20252;-54
2021/10/16 02:51:50;;;;;;;2.40;2.20;;;;;18.30;101053.00;;;;2087243;28;20530;-54
2021/10/16 02:52:50;;;;;;;2.77;2.57;;;;;18.30;101047.00;;;;2087276;28;20224;-54
2021/10/16 02:53:51;;;;;;;2.50;2.20;;;;;18.30;101056.00;;;;2086918;28;20324;-55
2021/10/16 02:54:51;;;;;;;2.40;2.20;;;;;18.30;101051.00;;;;2078355;28;20617;-53
2021/10/16 02:55:52;;;;;;;2.60;2.40;;;;;18.30;101053.00;;;;2086927;28;20729;-54
2021/10/16 02:56:52;;;;;;;2.13;1.93;;;;;18.30;101059.00;;;;2086708;28;20330;-58
2021/10/16 02:57:53;;;;;;;2.93;2.43;;;;;18.30;101063.00;;;;2095401;28;20215;-54
2021/10/16 02:58:53;;;;;;;2.30;2.10;;;;;18.30;101024.00;;;;2090664;28;20216;-56
2021/10/16 02:59:53;;;;;;;3.00;2.40;;;;;18.30;101062.00;;;;2087146;28;20622;-54
2021/10/16 03:00:54;;;;;;;2.30;2.10;;;;;18.30;101063.00;;;;2088455;28;20584;-53
2021/10/16 03:01:54;;;;;;;2.17;1.97;;;;;18.30;101054.00;;;;2094793;28;20216;-54
2021/10/16 03:02:55;;;;;;;2.97;2.50;;;;;18.40;101062.00;;;;2095448;28;20681;-55
2021/10/16 03:03:55;;;;;;;2.60;2.20;;;;;18.30;101058.00;;;;2095573;28;20212;-54
2021/10/16 03:04:55;;;;;;;2.20;2.00;;;;;18.30;101060.00;;;;2095621;28;20212;-54
2021/10/16 03:05:57;;;;;;;2.07;1.87;;;;;18.30;101058.00;;;;2095272;28;20581;-53
2021/10/16 03:06:59;;;;;;;2.20;2.00;;;;;18.30;101064.00;;;;2094320;28;20238;-54
2021/10/16 03:07:59;;;;;;;2.58;2.38;;;;;18.30;101058.00;;;;2096680;28;20434;-55
2021/10/16 03:08:59;;;;;;;2.27;2.07;;;;;18.30;101066.00;;;;2095755;28;20216;-53
2021/10/16 03:10:00;;;;;;;2.50;2.30;;;;;18.30;101070.00;;;;2097351;28;20219;-54
2021/10/16 03:11:01;;;;;;;2.60;2.20;;;;;18.30;101061.00;;;;2096561;28;20604;-55
2021/10/16 03:12:01;;;;;;;2.50;2.30;;;;;18.30;101067.00;;;;2096509;28;20525;-54
2021/10/16 03:13:02;;;;;;;2.47;2.27;;;;;18.30;101072.00;;;;2097369;28;20261;-54
2021/10/16 03:14:02;;;;;;;1.80;1.70;;;;;18.30;101064.00;;;;2097369;28;20212;-54
2021/10/16 03:15:04;;;;;;;1.80;1.70;;;;;18.30;101067.00;;;;2097491;28;20583;-55
2021/10/16 03:16:04;;;;;;;2.97;1.92;;;;;18.30;101067.00;;;;2092127;28;20334;-54
2021/10/16 03:17:05;;;;;;;3.20;2.13;;;;;18.30;101068.00;;;;2090352;28;20338;-55
2021/10/16 03:18:05;;;;;;;2.40;2.20;;;;;18.30;101066.00;;;;2090357;28;20209;-54
2021/10/16 03:19:06;;;;;;;1.90;1.70;;;;;18.30;101064.00;;;;2090377;28;20295;-55
2021/10/16 03:20:07;;;;;;;1.97;1.77;;;;;18.30;101065.00;;;;2089058;28;20212;-53
2021/10/16 03:21:07;;;;;;;1.90;1.80;;;;;18.30;101063.00;;;;2088929;28;20505;-55
2021/10/16 03:22:10;;;;;;;2.70;2.00;;;;;18.30;101062.00;;;;2096667;28;20468;-55
2021/10/16 03:23:11;;;;;;;2.15;1.90;;;;;18.30;101057.00;;;;2097178;28;20227;-53
2021/10/16 03:24:11;;;;;;;2.23;2.03;;;;;18.30;101058.00;;;;2097282;28;20587;-54
2021/10/16 03:25:11;;;;;;;2.80;2.07;;;;;18.30;101056.00;;;;2097126;28;20216;-55
2021/10/16 03:26:13;;;;;;;2.20;2.00;;;;;18.30;101064.00;;;;2097006;28;20334;-54
2021/10/16 03:27:14;;;;;;;2.30;2.08;;;;;18.30;101061.00;;;;2096419;28;20212;-55
2021/10/16 03:28:14;;;;;;;2.10;1.90;;;;;18.30;101066.00;;;;2096642;28;20204;-55
2021/10/16 03:29:15;;;;;;;2.00;1.87;;;;;18.30;101062.00;;;;2089066;28;20205;-54
2021/10/16 03:30:15;;;;;;;2.35;2.15;;;;;18.30;101059.00;;;;2092862;28;20212;-55
2021/10/16 03:31:16;;;;;;;3.50;2.20;;;;;18.30;101059.00;;;;2088813;28;20410;-55
2021/10/16 03:32:17;;;;;;;2.20;2.00;;;;;18.30;101064.00;;;;2088616;28;20219;-54
2021/10/16 03:33:17;;;;;;;3.23;2.53;;;;;18.30;101064.00;;;;2089039;28;20304;-54
2021/10/16 03:34:18;;;;;;;2.20;2.00;;;;;18.30;101061.00;;;;2088045;28;20704;-54
2021/10/16 03:35:18;;;;;;;2.47;2.13;;;;;18.30;101059.00;;;;2088714;28;20296;-55
2021/10/16 03:36:19;;;;;;;2.73;2.03;;;;;18.30;101058.00;;;;2088852;28;20208;-53
2021/10/16 03:37:19;;;;;;;2.10;1.90;;;;;18.30;101058.00;;;;2088792;28;20271;-53
2021/10/16 03:38:20;;;;;;;4.47;2.30;;;;;18.20;101054.00;;;;2096901;28;20458;-54
2021/10/16 03:39:21;;;;;;;2.00;1.90;;;;;18.30;101059.00;;;;2096388;28;20553;-53
2021/10/16 03:40:21;;;;;;;2.00;1.70;;;;;18.30;101062.00;;;;2096711;28;20223;-55
2021/10/16 03:41:22;;;;;;;2.10;1.90;;;;;18.30;101062.00;;;;2091098;28;20228;-55
2021/10/16 03:42:22;;;;;;;2.63;2.10;;;;;18.30;101060.00;;;;2090523;28;20212;-54
2021/10/16 03:43:23;;;;;;;1.83;1.73;;;;;18.30;101061.00;;;;2096903;28;20220;-55
2021/10/16 03:44:23;;;;;;;1.90;1.70;;;;;18.30;101063.00;;;;2096053;28;20659;-54
2021/10/16 03:45:24;;;;;;;3.00;2.17;;;;;18.30;101058.00;;;;2096340;28;20848;-54
2021/10/16 03:46:24;;;;;;;2.30;2.00;;;;;18.30;101060.00;;;;2087724;28;20221;-54
2021/10/16 03:47:25;;;;;;;2.00;1.77;;;;;18.30;101058.00;;;;2085510;28;20821;-54
2021/10/16 03:48:26;;;;;;;3.30;2.17;;;;;18.30;101055.00;;;;2091343;28;20294;-54
2021/10/16 03:49:26;;;;;;;2.22;1.90;;;;;18.30;101059.00;;;;2086456;28;20308;-55
2021/10/16 03:50:26;;;;;;;3.10;2.13;;;;;18.30;101059.00;;;;2087345;28;20212;-55
2021/10/16 03:51:27;;;;;;;2.33;2.00;;;;;18.10;101061.00;;;;2086953;28;20205;-54
2021/10/16 03:52:27;;;;;;;2.20;2.00;;;;;18.30;101054.00;;;;2088050;28;20296;-53
2021/10/16 03:53:28;;;;;;;2.17;1.97;;;;;18.30;101060.00;;;;2087507;28;20640;-54
2021/10/16 03:54:28;;;;;;;2.20;2.00;;;;;18.30;101053.00;;;;2087596;28;20219;-54
2021/10/16 03:55:28;;;;;;;2.17;1.70;;;;;18.20;101049.00;;;;2088433;28;20239;-55
2021/10/16 03:56:29;;;;;;;1.97;1.80;;;;;18.30;101056.00;;;;2088226;28;20212;-54
2021/10/16 03:57:30;;;;;;;2.20;2.00;;;;;18.30;101054.00;;;;2086616;28;20367;-54
2021/10/16 03:58:31;;;;;;;2.10;1.90;;;;;18.30;101063.00;;;;2085366;28;20676;-56
2021/10/16 03:59:32;;;;;;;2.33;2.13;;;;;18.30;101058.00;;;;2087626;28;20513;-53
2021/10/16 04:00:32;;;;;;;2.20;2.00;;;;;18.30;101058.00;;;;2088317;28;20462;-54
2021/10/16 04:01:32;;;;;;;3.03;2.50;;;;;18.30;101053.00;;;;2084917;28;20314;-55
2021/10/16 04:02:33;;;;;;;2.20;2.00;;;;;18.30;101058.00;;;;2084892;28;20232;-56
2021/10/16 04:03:35;;;;;;;1.93;1.80;;;;;18.30;101061.00;;;;2088352;28;20205;-55
2021/10/16 04:04:36;;;;;;;2.25;1.90;;;;;18.30;101057.00;;;;2087565;28;20925;-54
2021/10/16 04:05:36;;;;;;;1.57;1.47;;;;;18.30;101054.00;;;;2086972;28;20209;-54
2021/10/16 04:06:37;;;;;;;1.90;1.80;;;;;18.20;101046.00;;;;2088481;28;20304;-55
2021/10/16 04:07:38;;;;;;;2.37;1.93;;;;;18.20;101048.00;;;;2090671;28;20209;-55
2021/10/16 04:08:39;;;;;;;2.05;1.58;;;;;18.30;101057.00;;;;2093685;28;20208;-55
2021/10/16 04:09:39;;;;;;;2.20;2.00;;;;;18.30;101056.00;;;;2096393;28;20299;-54
2021/10/16 04:10:39;;;;;;;2.17;2.00;;;;;18.30;101062.00;;;;2096868;28;20291;-52
2021/10/16 04:11:40;;;;;;;2.33;2.00;;;;;18.30;101061.00;;;;2095971;28;20212;-54
2021/10/16 04:12:41;;;;;;;2.47;2.00;;;;;18.30;101057.00;;;;2095505;28;20693;-54
2021/10/16 04:13:42;;;;;;;2.13;1.75;;;;;18.30;101066.00;;;;2095840;28;20231;-54
2021/10/16 04:14:42;;;;;;;2.50;1.80;;;;;18.30;101053.00;;;;2094908;28;20215;-53
2021/10/16 04:15:42;;;;;;;1.93;1.60;;;;;18.30;101068.00;;;;2093943;28;20455;-54
2021/10/16 04:16:43;;;;;;;2.47;2.27;;;;;18.30;101069.00;;;;2091820;28;20686;-55
2021/10/16 04:17:45;;;;;;;2.10;1.90;;;;;18.30;101060.00;;;;2091095;28;20259;-57
2021/10/16 04:18:45;;;;;;;2.30;1.90;;;;;18.30;101063.00;;;;2088554;28;20308;-54
2021/10/16 04:19:46;;;;;;;1.80;1.70;;;;;18.30;101070.00;;;;2087164;28;20696;-55
2021/10/16 04:20:47;;;;;;;2.27;2.07;;;;;18.30;101064.00;;;;2088058;28;20213;-54
2021/10/16 04:21:48;;;;;;;2.25;2.05;;;;;18.30;101067.00;;;;2088482;28;20247;-55
2021/10/16 04:22:48;;;;;;;2.10;1.90;;;;;18.30;101068.00;;;;2087887;28;20471;-54
2021/10/16 04:23:49;;;;;;;2.13;1.93;;;;;18.30;101065.00;;;;2087859;28;20286;-54
2021/10/16 04:24:49;;;;;;;2.30;2.10;;;;;18.30;101067.00;;;;2087620;28;20243;-54
2021/10/16 04:25:51;;;;;;;1.83;1.53;;;;;18.30;101062.00;;;;2087762;28;20251;-54
2021/10/16 04:26:52;;;;;;;2.15;1.95;;;;;18.30;101070.00;;;;2087882;28;20216;-54
2021/10/16 04:27:53;;;;;;;2.13;1.90;;;;;18.30;101072.00;;;;2088192;28;20284;-55
2021/10/16 04:28:53;;;;;;;2.00;1.80;;;;;18.20;101061.00;;;;2094558;28;20206;-54
2021/10/16 04:29:53;;;;;;;2.00;1.80;;;;;18.30;101066.00;;;;2093929;28;20360;-54
2021/10/16 04:30:54;;;;;;;1.67;1.57;;;;;18.30;101059.00;;;;2096639;28;20216;-55
2021/10/16 04:31:55;;;;;;;2.00;1.90;;;;;18.30;101063.00;;;;2096557;28;20220;-63
2021/10/16 04:32:58;;;;;;;2.27;2.07;;;;;18.20;101063.00;;;;2096635;28;20449;-53
2021/10/16 04:33:59;;;;;;;2.00;1.80;;;;;18.30;101062.00;;;;2096335;28;20299;-53
2021/10/16 04:34:59;;;;;;;1.90;1.80;;;;;18.20;101065.00;;;;2096701;28;20212;-55
2021/10/16 04:36:02;;;;;;;2.07;1.87;;;;;18.30;101072.00;;;;2096600;28;20691;-53
2021/10/16 04:37:03;;;;;;;2.05;1.77;;;;;18.30;101072.00;;;;2095762;28;20216;-54
2021/10/16 04:38:04;;;;;;;2.00;1.80;;;;;18.20;101062.00;;;;2094391;28;20697;-54
2021/10/16 04:39:04;;;;;;;2.10;2.00;;;;;18.20;101062.00;;;;2087786;28;20350;-55
2021/10/16 04:40:18;;;;;;;2.30;2.10;;;;;18.20;101074.00;;;;2085853;28;20243;-54
2021/10/16 04:41:18;;;;;;;2.40;2.13;;;;;18.30;101073.00;;;;2093649;28;20215;-55
2021/10/16 04:42:19;;;;;;;2.10;1.60;;;;;18.30;101059.00;;;;2096239;28;20212;-54
2021/10/16 04:43:19;;;;;;;2.10;1.90;;;;;18.30;101070.00;;;;2095274;28;20220;-55
2021/10/16 04:44:20;;;;;;;2.77;2.00;;;;;18.30;101060.00;;;;2095936;28;20568;-54
2021/10/16 04:45:21;;;;;;;1.63;1.53;;;;;18.30;101072.00;;;;2095425;28;20307;-56
2021/10/16 04:46:22;;;;;;;1.90;1.80;;;;;18.30;101067.00;;;;2091715;28;20244;-54
2021/10/16 04:47:23;;;;;;;2.00;1.80;;;;;18.30;101066.00;;;;2091168;28;20204;-54
2021/10/16 04:48:23;;;;;;;1.60;1.50;;;;;18.30;101063.00;;;;2091072;28;20204;-54
2021/10/16 04:49:23;;;;;;;1.70;1.60;;;;;18.30;101072.00;;;;2093263;28;20205;-54
2021/10/16 04:50:24;;;;;;;1.67;1.57;;;;;18.30;101069.00;;;;2096699;28;20196;-55
2021/10/16 04:51:24;;;;;;;1.80;1.60;;;;;18.20;101061.00;;;;2096573;28;20227;-55
2021/10/16 04:52:24;;;;;;;1.83;1.60;;;;;18.30;101069.00;;;;2095686;28;20211;-55
2021/10/16 04:53:25;;;;;;;2.00;1.70;;;;;18.20;101062.00;;;;2096260;28;20215;-55
2021/10/16 04:54:25;;;;;;;1.97;1.67;;;;;18.30;101066.00;;;;2096004;28;20204;-54
2021/10/16 04:55:26;;;;;;;2.30;2.10;;;;;18.20;101058.00;;;;2096380;28;20196;-55
2021/10/16 04:56:26;;;;;;;1.70;1.60;;;;;18.20;101062.00;;;;2096538;28;20564;-55
2021/10/16 04:57:27;;;;;;;2.00;1.80;;;;;18.30;101060.00;;;;2096592;28;20525;-55
2021/10/16 04:58:27;;;;;;;2.23;2.00;;;;;18.30;101056.00;;;;2096373;28;20208;-55
2021/10/16 04:59:28;;;;;;;1.90;1.73;;;;;18.20;101060.00;;;;2089017;28;20221;-55
2021/10/16 05:00:28;;;;;;;2.13;1.90;;;;;18.30;101057.00;;;;2088146;28;23035;-54
2021/10/16 05:01:29;;;;;;;1.87;1.50;;;;;18.20;101054.00;;;;2088289;28;20702;-54